Time;durP1;ratioP1;P1;durP2;ratioP2;P2;SDS_P1;SDS_P2;PMS_P1;PMS_P2;Temp;Humidity;BMP_temperature;BMP_pressure;BME280_temperature;BME280_humidity;BME280_pressure;Samples;Min_cycle;Max_cycle;Signal;HPM_P1;HPM_P2
2021/08/08 00:02:22;;;;;;;2.92;2.50;;;;;;;26.30;50.68;101316.96;1685041;84;21069;-50
2021/08/08 00:04:49;;;;;;;2.30;1.95;;;;;;;26.29;50.71;101320.62;1683222;85;21560;-49
2021/08/08 00:07:17;;;;;;;4.25;2.27;;;;;;;26.27;50.68;101321.22;1680852;84;21010;-50
2021/08/08 00:09:45;;;;;;;3.77;2.08;;;;;;;26.25;50.69;101329.35;1686203;85;21057;-50
2021/08/08 00:12:12;;;;;;;3.20;1.82;;;;;;;26.21;50.90;101333.70;1685347;85;21561;-50
2021/08/08 00:14:39;;;;;;;4.12;1.67;;;;;;;26.19;50.56;101342.31;1671341;85;21509;-50
2021/08/08 00:17:06;;;;;;;4.78;2.00;;;;;;;26.16;50.47;101340.73;1690182;84;21153;-50
2021/08/08 00:19:32;;;;;;;3.77;1.85;;;;;;;26.15;50.52;101339.52;1680906;84;21041;-50
2021/08/08 00:21:59;;;;;;;2.55;1.92;;;;;;;26.14;50.66;101333.80;1680608;85;21531;-50
2021/08/08 00:24:26;;;;;;;7.58;2.40;;;;;;;26.16;50.63;101339.87;1667363;85;21043;-49
2021/08/08 00:26:52;;;;;;;2.12;1.90;;;;;;;26.15;50.66;101345.67;1700301;84;21503;-49
2021/08/08 00:29:21;;;;;;;2.35;2.15;;;;;;;26.16;50.41;101355.87;1682713;85;21026;-50
2021/08/08 00:31:47;;;;;;;4.47;2.20;;;;;;;26.15;50.46;101352.86;1660113;85;21527;-50
2021/08/08 00:34:16;;;;;;;3.52;2.00;;;;;;;26.15;50.55;101352.34;1701375;83;21503;-50
2021/08/08 00:36:45;;;;;;;1.98;1.85;;;;;;;26.16;50.04;101351.87;1687938;84;21545;-50
2021/08/08 00:39:15;;;;;;;3.17;2.08;;;;;;;26.15;49.97;101355.52;1682684;84;21053;-50
2021/08/08 00:41:42;;;;;;;3.90;2.22;;;;;;;26.12;50.03;101355.27;1684771;84;21113;-50
2021/08/08 00:44:09;;;;;;;3.40;1.82;;;;;;;26.12;50.42;101361.08;1677837;85;21057;-50
2021/08/08 00:46:36;;;;;;;2.15;1.95;;;;;;;26.10;50.19;101365.20;1679903;85;21054;-49
2021/08/08 00:49:03;;;;;;;2.45;2.08;;;;;;;26.11;50.12;101366.06;1681039;84;21112;-51
2021/08/08 00:51:33;;;;;;;2.15;1.95;;;;;;;26.10;50.22;101367.88;1679942;85;21041;-49
2021/08/08 00:54:01;;;;;;;3.00;1.90;;;;;;;26.09;50.30;101372.00;1672336;86;21032;-49
2021/08/08 00:56:29;;;;;;;2.12;1.77;;;;;;;26.08;50.08;101371.62;1700697;84;21104;-49
2021/08/08 00:58:57;;;;;;;3.05;2.12;;;;;;;26.07;50.05;101375.23;1697550;84;21478;-49
2021/08/08 01:01:27;;;;;;;2.83;2.10;;;;;;;26.06;49.91;101377.05;1695498;83;21502;-49
2021/08/08 01:03:57;;;;;;;3.40;1.87;;;;;;;26.06;49.81;101378.85;1680415;85;21077;-49
2021/08/08 01:06:43;;;;;;;3.08;2.35;;;;;;;26.06;49.96;101378.85;1679978;85;21010;-49
2021/08/08 01:09:11;;;;;;;3.62;2.27;;;;;;;26.07;49.97;101380.57;1667954;84;21012;-50
2021/08/08 01:11:39;;;;;;;2.47;2.22;;;;;;;26.08;50.06;101383.63;1695408;85;20973;-50
2021/08/08 01:14:07;;;;;;;4.72;2.22;;;;;;;26.07;50.14;101376.57;1695275;85;21029;-49
2021/08/08 01:16:35;;;;;;;4.58;2.50;;;;;;;26.08;50.45;101391.14;1685712;85;21029;-50
2021/08/08 01:19:03;;;;;;;2.42;1.82;;;;;;;26.09;50.24;101392.00;1682141;85;21160;-49
2021/08/08 01:21:33;;;;;;;2.30;1.85;;;;;;;26.07;50.04;101384.57;1734334;82;21044;-50
2021/08/08 01:24:01;;;;;;;2.85;1.80;;;;;;;26.04;49.84;101379.45;1740555;82;21020;-50
2021/08/08 01:26:30;;;;;;;2.87;2.20;;;;;;;26.03;49.67;101379.11;1739931;82;21165;-49
2021/08/08 01:29:01;;;;;;;3.42;2.58;;;;;;;26.02;50.28;101383.58;1716323;82;21024;-50
2021/08/08 01:31:29;;;;;;;3.17;1.95;;;;;;;26.02;50.25;101380.05;1738610;82;21067;-49
2021/08/08 01:33:56;;;;;;;2.67;2.25;;;;;;;26.01;50.14;101378.38;1737065;82;21546;-50
2021/08/08 01:36:23;;;;;;;4.15;2.30;;;;;;;26.00;50.04;101376.66;1734727;82;21063;-49
2021/08/08 01:39:07;;;;;;;5.22;2.33;;;;;;;25.98;50.90;101378.11;1739035;82;21480;-50
2021/08/08 01:41:56;;;;;;;2.62;2.42;;;;;;;25.98;51.69;101377.25;1742601;82;21035;-49
2021/08/08 01:44:25;;;;;;;3.83;2.52;;;;;;;25.97;52.14;101372.87;1725520;82;21072;-50
2021/08/08 01:46:57;;;;;;;3.02;2.72;;;;;;;25.94;52.60;101375.80;1734210;81;21461;-50
2021/08/08 01:49:28;;;;;;;3.90;2.30;;;;;;;25.91;52.81;101372.00;1737380;82;21025;-50
2021/08/08 01:51:57;;;;;;;;;;;;;;;25.87;53.07;101366.06;1753660;81;21589;-50
2021/08/08 01:54:25;;;;;;;2.52;2.20;;;;;;;25.87;53.26;101374.55;1747970;82;20118;-50
2021/08/08 01:56:54;;;;;;;2.67;2.20;;;;;;;25.83;53.34;101370.79;1747249;81;21058;-50
2021/08/08 01:59:22;;;;;;;5.45;2.40;;;;;;;25.82;53.29;101376.25;1753200;81;21061;-50
2021/08/08 02:01:50;;;;;;;2.50;2.30;;;;;;;25.81;53.13;101377.20;1744679;81;21038;-50
2021/08/08 02:04:27;;;;;;;3.55;2.35;;;;;;;25.79;52.69;101374.66;1754807;81;21076;-49
2021/08/08 02:07:02;;;;;;;2.70;2.20;;;;;;;25.78;52.32;101372.94;1687076;83;21030;-50
2021/08/08 02:09:31;;;;;;;5.62;2.25;;;;;;;25.78;52.06;101374.78;1701774;83;21020;-50
2021/08/08 02:11:58;;;;;;;3.05;2.20;;;;;;;25.77;52.07;101370.40;1712977;81;20972;-50
2021/08/08 02:14:26;;;;;;;1.92;1.77;;;;;;;25.76;51.94;101376.20;1693864;83;21044;-50
2021/08/08 02:16:56;;;;;;;3.20;1.90;;;;;;;25.73;51.84;101376.45;1680533;83;21047;-50
2021/08/08 02:19:23;;;;;;;5.35;1.98;;;;;;;25.74;51.95;101370.61;1700929;83;21646;-50
2021/08/08 02:21:52;;;;;;;3.98;2.40;;;;;;;25.71;52.03;101366.86;1717879;83;21566;-50
2021/08/08 02:24:20;;;;;;;2.60;2.40;;;;;;;25.70;52.34;101366.00;1692522;83;21004;-50
2021/08/08 02:26:49;;;;;;;2.30;2.10;;;;;;;25.68;52.27;101359.08;1693262;83;21054;-50
2021/08/08 02:29:17;;;;;;;10.40;2.30;;;;;;;25.66;52.54;101360.53;1696503;83;21545;-50
2021/08/08 02:31:45;;;;;;;5.50;2.20;;;;;;;25.64;52.65;101355.80;1687583;83;21557;-50
2021/08/08 02:34:14;;;;;;;4.08;2.40;;;;;;;25.63;52.56;101358.12;1706503;83;21426;-50
2021/08/08 02:36:42;;;;;;;2.83;1.92;;;;;;;25.61;52.68;101349.39;1691661;82;21133;-50
2021/08/08 02:39:09;;;;;;;2.87;2.15;;;;;;;25.61;52.19;101360.05;1701613;83;21550;-50
2021/08/08 02:41:36;;;;;;;2.20;1.87;;;;;;;25.58;52.02;101356.27;1678688;85;21070;-49
2021/08/08 02:44:04;;;;;;;3.20;2.17;;;;;;;25.58;51.68;101356.27;1710688;83;21015;-50
2021/08/08 02:46:31;;;;;;;5.70;2.20;;;;;;;25.58;51.25;101358.92;1711721;83;21524;-50
2021/08/08 02:48:58;;;;;;;3.20;2.15;;;;;;;25.57;51.07;101358.58;1710433;83;21055;-50
2021/08/08 02:51:26;;;;;;;2.02;1.50;;;;;;;25.57;50.70;101366.57;1699083;83;21039;-50
2021/08/08 02:53:53;;;;;;;2.02;1.62;;;;;;;25.55;50.48;101359.65;1700663;84;21020;-50
2021/08/08 02:56:20;;;;;;;3.27;1.42;;;;;;;25.51;50.59;101363.00;1696161;83;21067;-49
2021/08/08 02:58:49;;;;;;;4.95;1.77;;;;;;;25.49;50.94;101368.92;1696679;83;21020;-50
2021/08/08 03:01:15;;;;;;;2.58;1.87;;;;;;;25.47;51.02;101366.86;1698677;84;21101;-50
2021/08/08 03:03:43;;;;;;;3.35;2.22;;;;;;;25.46;51.17;101370.50;1725331;82;21754;-49
2021/08/08 03:06:13;;;;;;;2.77;2.22;;;;;;;25.46;51.56;101368.31;1733389;82;21008;-49
2021/08/08 03:08:44;;;;;;;6.00;2.08;;;;;;;25.46;51.93;101367.84;1722146;82;21539;-49
2021/08/08 03:11:11;;;;;;;2.50;2.30;;;;;;;25.45;51.71;101366.13;1735287;82;21027;-49
2021/08/08 03:13:41;;;;;;;2.00;1.90;;;;;;;25.43;51.90;101374.71;1734048;82;21543;-49
2021/08/08 03:16:08;;;;;;;4.10;2.37;;;;;;;25.42;51.98;101374.83;1737244;82;21015;-49
2021/08/08 03:18:36;;;;;;;2.40;2.12;;;;;;;25.43;52.02;101372.05;1732332;82;21096;-49
2021/08/08 03:21:04;;;;;;;2.52;2.00;;;;;;;25.43;51.87;101372.05;1730941;82;21113;-49
2021/08/08 03:23:31;;;;;;;9.75;2.27;;;;;;;25.44;51.68;101378.23;1728234;82;21511;-49
2021/08/08 03:25:58;;;;;;;2.80;2.20;;;;;;;25.43;51.63;101384.03;1736918;82;21618;-49
2021/08/08 03:28:25;;;;;;;2.58;2.15;;;;;;;25.44;51.85;101386.23;1714179;82;21012;-49
2021/08/08 03:30:52;;;;;;;4.20;2.40;;;;;;;25.46;51.94;101395.81;1734334;82;21040;-49
2021/08/08 03:33:20;;;;;;;4.90;2.20;;;;;;;25.46;52.07;101393.16;1737536;82;21055;-50
2021/08/08 03:35:46;;;;;;;4.75;2.40;;;;;;;25.45;52.30;101402.09;1740764;82;20968;-49
2021/08/08 03:38:13;;;;;;;5.25;2.67;;;;;;;25.48;52.58;101393.89;1740717;82;21058;-49
2021/08/08 03:40:40;;;;;;;6.37;2.35;;;;;;;25.61;52.63;101392.50;1737689;81;21041;-49
2021/08/08 03:43:08;;;;;;;6.15;2.52;;;;;;;25.81;51.98;101394.05;1738896;82;21072;-49
2021/08/08 03:45:34;;;;;;;2.17;1.70;;;;;;;26.04;51.43;101395.45;1742521;82;21012;-49
2021/08/08 03:48:01;;;;;;;3.98;1.92;;;;;;;26.26;51.06;101394.20;1735925;82;20984;-49
2021/08/08 03:50:30;;;;;;;3.47;2.20;;;;;;;26.55;50.47;101395.00;1715168;83;21044;-49
2021/08/08 03:52:57;;;;;;;2.25;1.98;;;;;;;26.82;49.80;101400.02;1732646;82;21008;-49
2021/08/08 03:55:24;;;;;;;4.80;2.37;;;;;;;26.97;49.12;101405.97;1736189;82;21036;-48
2021/08/08 03:57:50;;;;;;;4.10;2.45;;;;;;;26.97;48.64;101405.48;1737558;82;21023;-48
2021/08/08 04:00:19;;;;;;;5.22;2.40;;;;;;;26.90;48.69;101413.61;1733463;82;21075;-49
2021/08/08 04:02:46;;;;;;;2.98;2.20;;;;;;;26.82;48.72;101414.70;1736351;82;21503;-49
2021/08/08 04:05:14;;;;;;;6.33;2.20;;;;;;;26.74;48.55;101429.14;1734078;82;21024;-48
2021/08/08 04:07:41;;;;;;;2.80;2.37;;;;;;;26.62;48.77;101434.08;1738051;82;21661;-49
2021/08/08 04:10:11;;;;;;;8.00;2.58;;;;;;;26.49;48.99;101434.17;1736021;82;21028;-49
2021/08/08 04:12:39;;;;;;;4.08;2.37;;;;;;;26.38;49.20;101436.81;1735996;82;21036;-49
2021/08/08 04:15:08;;;;;;;4.58;2.10;;;;;;;26.30;49.25;101438.36;1739835;82;21485;-49
2021/08/08 04:17:35;;;;;;;4.60;2.45;;;;;;;26.21;49.66;101441.27;1737346;82;21019;-50
2021/08/08 04:20:03;;;;;;;5.95;2.50;;;;;;;26.15;49.98;101446.22;1735486;82;21527;-50
2021/08/08 04:22:30;;;;;;;2.52;2.00;;;;;;;26.08;50.15;101435.63;1733916;82;20992;-50
2021/08/08 04:24:57;;;;;;;4.45;2.20;;;;;;;26.02;50.25;101444.06;1737725;82;21020;-49
2021/08/08 04:27:24;;;;;;;3.83;1.95;;;;;;;25.98;50.32;101447.45;1729332;82;21028;-49
2021/08/08 04:29:51;;;;;;;5.58;2.00;;;;;;;25.94;50.56;101451.79;1731669;82;21064;-50
2021/08/08 04:32:18;;;;;;;3.33;2.33;;;;;;;25.93;50.62;101444.73;1737936;82;21105;-49
2021/08/08 04:34:45;;;;;;;2.30;2.10;;;;;;;25.90;50.69;101444.51;1733516;82;20993;-49
2021/08/08 04:37:12;;;;;;;4.40;2.55;;;;;;;25.89;50.66;101450.80;1730405;82;20996;-50
2021/08/08 04:39:38;;;;;;;3.10;2.25;;;;;;;25.88;50.81;101446.91;1739813;82;21068;-49
2021/08/08 04:42:05;;;;;;;5.08;2.17;;;;;;;25.87;51.00;101455.86;1737906;82;21531;-49
2021/08/08 04:44:34;;;;;;;4.03;2.50;;;;;;;25.88;51.06;101466.44;1737700;82;21055;-49
2021/08/08 04:47:01;;;;;;;4.03;2.47;;;;;;;25.89;50.85;101473.45;1744824;82;21047;-49
2021/08/08 04:49:28;;;;;;;3.22;2.17;;;;;;;25.90;50.94;101474.31;1739373;82;22254;-49
2021/08/08 04:51:55;;;;;;;3.22;2.10;;;;;;;25.90;50.83;101476.98;1737480;82;21106;-50
2021/08/08 04:54:22;;;;;;;7.10;2.80;;;;;;;25.89;51.06;101489.45;1739850;82;21044;-49
2021/08/08 04:56:49;;;;;;;5.97;2.00;;;;;;;25.89;51.08;101486.79;1737573;81;21115;-49
2021/08/08 04:59:16;;;;;;;2.72;2.52;;;;;;;25.89;51.15;101489.93;1736626;82;21092;-50
2021/08/08 05:01:43;;;;;;;4.10;2.12;;;;;;;25.90;51.30;101483.17;1736686;82;21059;-50
2021/08/08 05:04:10;;;;;;;5.53;2.67;;;;;;;25.88;51.20;101481.58;1728462;82;21512;-49
2021/08/08 05:06:36;;;;;;;3.12;2.15;;;;;;;25.87;51.37;101483.86;1733112;82;21012;-50
2021/08/08 05:09:04;;;;;;;3.37;2.47;;;;;;;25.84;51.35;101487.13;1735320;82;21040;-48
2021/08/08 05:11:32;;;;;;;2.87;2.52;;;;;;;25.84;51.40;101489.78;1735247;82;21122;-49
2021/08/08 05:14:00;;;;;;;4.70;2.62;;;;;;;25.87;51.28;101491.86;1732009;82;21036;-50
2021/08/08 05:16:27;;;;;;;4.55;2.33;;;;;;;25.86;51.02;101495.51;1717983;82;21551;-50
2021/08/08 05:18:55;;;;;;;4.55;2.60;;;;;;;25.86;51.15;101499.51;1694606;84;21081;-49
2021/08/08 05:21:22;;;;;;;5.28;2.62;;;;;;;25.86;51.08;101496.84;1738774;82;21036;-49
2021/08/08 05:23:50;;;;;;;2.40;2.20;;;;;;;25.86;51.03;101496.84;1738212;81;21087;-49
2021/08/08 05:26:17;;;;;;;3.92;2.40;;;;;;;25.85;50.76;101494.65;1739441;82;21060;-49
2021/08/08 05:28:44;;;;;;;4.60;2.60;;;;;;;25.88;50.67;101501.58;1738620;82;21469;-50
2021/08/08 05:31:12;;;;;;;6.87;2.70;;;;;;;25.88;50.68;101500.24;1730775;82;21043;-49
2021/08/08 05:33:39;;;;;;;5.58;3.67;;;;;;;25.89;50.61;101504.59;1744628;82;21031;-48
2021/08/08 05:36:06;;;;;;;3.25;2.37;;;;;;;25.93;50.17;101504.73;1744711;81;21446;-48
2021/08/08 05:38:33;;;;;;;4.97;3.52;;;;;;;25.99;50.22;101508.31;1724196;81;21036;-47
2021/08/08 05:41:00;;;;;;;5.00;4.35;;;;;;;26.11;49.89;101508.77;1725658;81;21009;-48
2021/08/08 05:43:27;;;;;;;6.65;4.28;;;;;;;26.21;49.27;101509.30;1742015;81;20978;-48
2021/08/08 05:45:54;;;;;;;9.23;3.90;;;;;;;26.26;49.12;101503.59;1728944;81;21813;-48
2021/08/08 05:48:22;;;;;;;4.10;3.55;;;;;;;26.29;48.62;101498.91;1738927;81;20947;-49
2021/08/08 05:50:50;;;;;;;3.92;2.33;;;;;;;26.31;48.35;101496.11;1733212;81;21015;-50
2021/08/08 05:53:17;;;;;;;3.15;2.33;;;;;;;26.32;48.27;101495.13;1735509;81;21058;-49
2021/08/08 05:55:46;;;;;;;3.47;2.27;;;;;;;26.31;48.29;101490.77;1736253;81;21070;-50
2021/08/08 05:58:14;;;;;;;14.98;13.18;;;;;;;26.31;48.84;101493.44;1737711;81;20990;-50
2021/08/08 06:00:42;;;;;;;18.35;16.52;;;;;;;26.29;48.51;101490.90;1743449;81;20979;-50
2021/08/08 06:03:10;;;;;;;7.42;6.03;;;;;;;26.31;48.59;101492.11;1736265;81;21499;-50
2021/08/08 06:05:37;;;;;;;4.55;3.10;;;;;;;26.31;48.30;101498.78;1693400;83;21073;-49
2021/08/08 06:08:05;;;;;;;3.40;2.62;;;;;;;26.32;48.21;101499.98;1724814;82;21089;-50
2021/08/08 06:10:32;;;;;;;4.72;2.67;;;;;;;26.38;47.87;101502.66;1721104;82;21550;-50
2021/08/08 06:12:59;;;;;;;4.55;2.40;;;;;;;26.41;47.44;101503.31;1717108;82;21040;-50
2021/08/08 06:15:28;;;;;;;2.80;2.00;;;;;;;26.47;47.37;101500.64;1723903;82;21054;-49
2021/08/08 06:17:57;;;;;;;3.62;2.37;;;;;;;26.50;47.19;101495.09;1716454;82;21088;-49
2021/08/08 06:20:24;;;;;;;3.35;2.40;;;;;;;26.57;46.93;101495.83;1729885;82;21167;-49
2021/08/08 06:22:51;;;;;;;4.70;1.98;;;;;;;26.63;46.84;101497.16;1688986;83;21022;-49
2021/08/08 06:25:17;;;;;;;7.40;2.35;;;;;;;26.69;46.91;101496.69;1687690;84;21093;-48
2021/08/08 06:27:44;;;;;;;6.00;2.42;;;;;;;26.74;47.06;101488.36;1727830;82;21077;-49
2021/08/08 06:30:12;;;;;;;6.15;2.83;;;;;;;26.79;47.12;101487.02;1709264;83;21508;-49
2021/08/08 06:32:40;;;;;;;16.70;10.48;;;;;;;26.82;46.94;101493.48;1708116;82;21066;-50
2021/08/08 06:35:08;;;;;;;7.17;5.62;;;;;;;26.82;47.03;101492.14;1697012;83;21049;-50
2021/08/08 06:37:35;;;;;;;4.00;2.92;;;;;;;26.82;47.42;101485.95;1729966;82;21066;-50
2021/08/08 06:40:02;;;;;;;4.92;3.02;;;;;;;26.82;47.56;101488.61;1723668;82;20978;-50
2021/08/08 06:42:29;;;;;;;2.83;1.92;;;;;;;26.82;47.82;101488.14;1721304;82;21179;-50
2021/08/08 06:44:57;;;;;;;4.50;2.10;;;;;;;26.88;47.77;101494.33;1727966;82;21522;-50
2021/08/08 06:47:25;;;;;;;8.85;5.22;;;;;;;26.88;47.77;101494.33;1736538;81;20951;-50
2021/08/08 06:49:52;;;;;;;2.92;2.60;;;;;;;26.93;47.54;101496.17;1727446;81;21097;-51
2021/08/08 06:52:19;;;;;;;6.15;2.85;;;;;;;26.94;47.60;101509.88;1731975;81;21056;-50
2021/08/08 06:54:45;;;;;;;2.67;2.47;;;;;;;26.95;47.47;101509.40;1726174;81;21005;-50
2021/08/08 06:57:14;;;;;;;4.00;2.50;;;;;;;26.95;47.60;101508.92;1729994;82;20983;-50
2021/08/08 06:59:41;;;;;;;2.90;2.60;;;;;;;26.95;47.73;101511.59;1728738;82;21042;-50
2021/08/08 07:02:08;;;;;;;6.00;2.65;;;;;;;26.96;47.85;101507.94;1729476;82;21025;-50
2021/08/08 07:04:34;;;;;;;3.67;2.50;;;;;;;26.95;47.87;101503.58;1724642;81;20990;-49
2021/08/08 07:07:02;;;;;;;4.30;2.72;;;;;;;26.95;47.99;101503.58;1727848;82;21001;-50
2021/08/08 07:09:30;;;;;;;5.78;2.35;;;;;;;26.95;47.89;101503.58;1727489;82;21060;-49
2021/08/08 07:11:58;;;;;;;4.97;2.22;;;;;;;26.95;47.89;101507.59;1709235;82;20998;-49
2021/08/08 07:14:31;;;;;;;3.27;2.42;;;;;;;26.99;48.14;101505.05;1658851;84;21515;-50
2021/08/08 07:16:57;;;;;;;4.05;2.62;;;;;;;27.03;47.82;101501.16;1666020;84;21056;-50
2021/08/08 07:19:24;;;;;;;5.92;3.20;;;;;;;27.09;47.61;101500.67;1728458;81;21489;-50
2021/08/08 07:21:53;;;;;;;3.42;2.20;;;;;;;27.16;47.86;101501.87;1724477;82;21597;-48
2021/08/08 07:24:21;;;;;;;3.87;2.50;;;;;;;27.24;47.58;101504.78;1722178;82;21026;-48
2021/08/08 07:26:49;;;;;;;3.10;2.70;;;;;;;27.29;47.53;101494.59;1729414;82;21011;-49
2021/08/08 07:29:17;;;;;;;3.22;2.15;;;;;;;27.34;47.70;101500.47;1726438;82;21013;-49
2021/08/08 07:31:44;;;;;;;4.45;2.20;;;;;;;27.38;47.23;101499.25;1723598;82;21030;-50
2021/08/08 07:34:11;;;;;;;5.17;2.70;;;;;;;27.39;47.61;101500.07;1691733;83;21440;-49
2021/08/08 07:36:38;;;;;;;2.47;1.85;;;;;;;27.44;47.66;101498.37;1680219;84;21050;-49
2021/08/08 07:39:04;;;;;;;3.83;2.10;;;;;;;27.45;47.24;101496.08;1681537;84;20999;-49
2021/08/08 07:41:33;;;;;;;2.85;2.00;;;;;;;27.46;47.09;101495.09;1680822;84;21102;-50
2021/08/08 07:44:00;;;;;;;3.75;2.40;;;;;;;27.48;47.46;101492.66;1672305;84;21043;-49
2021/08/08 07:46:28;;;;;;;4.33;1.90;;;;;;;27.54;47.39;101492.64;1678231;84;21413;-49
2021/08/08 07:48:55;;;;;;;3.00;2.12;;;;;;;27.57;47.25;101487.06;1675998;84;21006;-50
2021/08/08 07:51:22;;;;;;;3.42;2.55;;;;;;;27.65;47.12;101497.98;1680308;83;21099;-49
2021/08/08 07:53:49;;;;;;;12.13;2.87;;;;;;;27.65;47.12;101497.98;1681373;82;21505;-49
2021/08/08 07:56:16;;;;;;;3.40;2.33;;;;;;;27.67;46.86;101493.36;1723211;81;21061;-50
2021/08/08 07:58:45;;;;;;;3.80;2.20;;;;;;;27.69;46.79;101496.76;1698902;82;21044;-50
2021/08/08 08:01:12;;;;;;;3.37;1.90;;;;;;;27.74;46.92;101497.25;1729019;82;21049;-49
2021/08/08 08:03:40;;;;;;;8.65;2.87;;;;;;;27.74;46.92;101497.25;1727132;82;21010;-49
2021/08/08 08:06:07;;;;;;;7.05;2.40;;;;;;;27.78;46.58;101498.70;1724254;82;21138;-49
2021/08/08 08:08:34;;;;;;;4.80;2.60;;;;;;;27.81;46.75;101501.10;1730407;82;21039;-49
2021/08/08 08:11:01;;;;;;;7.00;3.40;;;;;;;27.84;46.57;101489.66;1720358;82;21053;-49
2021/08/08 08:13:28;;;;;;;2.75;2.15;;;;;;;27.86;46.34;101490.38;1722663;82;21088;-50
2021/08/08 08:15:57;;;;;;;4.62;2.20;;;;;;;27.92;45.53;101485.89;1726913;82;21554;-50
2021/08/08 08:18:24;;;;;;;6.83;2.27;;;;;;;27.92;45.53;101485.89;1710288;82;20999;-50
2021/08/08 08:20:51;;;;;;;1.92;1.80;;;;;;;27.97;45.14;101480.16;1727199;81;21503;-49
2021/08/08 08:23:20;;;;;;;8.58;2.67;;;;;;;27.97;45.14;101480.16;1690662;83;21010;-49
2021/08/08 08:25:47;;;;;;;3.95;2.30;;;;;;;27.97;45.70;101481.50;1708522;83;21011;-50
2021/08/08 08:28:13;;;;;;;2.72;2.02;;;;;;;27.99;46.10;101485.75;1729782;82;21117;-50
2021/08/08 08:30:40;;;;;;;2.58;2.15;;;;;;;28.07;45.79;101478.42;1733019;82;21541;-50
2021/08/08 08:33:07;;;;;;;2.30;2.10;;;;;;;28.07;45.79;101478.42;1731736;82;21037;-49
2021/08/08 08:35:34;;;;;;;4.70;2.47;;;;;;;28.11;45.48;101477.19;1725965;82;21152;-49
2021/08/08 08:38:01;;;;;;;2.20;1.70;;;;;;;28.14;45.02;101474.27;1715997;82;21595;-50
2021/08/08 08:40:28;;;;;;;5.30;1.85;;;;;;;28.19;44.63;101468.05;1725385;81;21056;-50
2021/08/08 08:42:57;;;;;;;4.03;2.30;;;;;;;28.24;44.46;101473.00;1734284;81;21072;-50
2021/08/08 08:45:24;;;;;;;10.85;2.58;;;;;;;28.28;44.03;101468.60;1719180;82;20973;-50
2021/08/08 08:47:50;;;;;;;6.12;2.02;;;;;;;28.36;41.76;101474.16;1711162;81;21013;-50
2021/08/08 08:50:20;;;;;;;3.50;1.80;;;;;;;28.36;41.76;101474.16;1694736;83;21044;-50
2021/08/08 08:52:47;;;;;;;3.08;1.55;;;;;;;28.41;41.70;101465.25;1680276;83;21031;-49
2021/08/08 08:55:14;;;;;;;4.78;1.82;;;;;;;28.47;41.13;101467.89;1655612;85;21034;-50
2021/08/08 08:57:41;;;;;;;3.77;1.80;;;;;;;28.53;40.68;101469.56;1689132;83;21078;-49
2021/08/08 09:00:10;;;;;;;5.42;2.25;;;;;;;28.63;40.57;101462.95;1689416;83;21011;-49
2021/08/08 09:02:40;;;;;;;7.40;1.98;;;;;;;28.63;40.57;101462.95;1664737;84;21086;-49
2021/08/08 09:05:09;;;;;;;7.00;3.30;;;;;;;28.69;40.29;101457.06;1679493;83;21556;-48
2021/08/08 09:07:37;;;;;;;3.33;2.00;;;;;;;28.75;39.87;101462.73;1677061;84;21032;-48
2021/08/08 09:10:12;;;;;;;5.90;2.47;;;;;;;28.80;39.01;101456.98;1677270;84;21096;-48
2021/08/08 09:12:39;;;;;;;5.37;2.20;;;;;;;28.84;39.61;101462.44;1578093;90;21567;-48
2021/08/08 09:15:07;;;;;;;3.60;1.82;;;;;;;28.88;39.47;101466.06;1614910;88;21090;-48
2021/08/08 09:17:36;;;;;;;8.93;2.10;;;;;;;28.93;39.16;101458.45;1621603;87;21060;-48
2021/08/08 09:20:13;;;;;;;2.52;1.65;;;;;;;29.00;39.33;101460.63;1614364;88;21091;-49
2021/08/08 09:22:42;;;;;;;4.10;1.57;;;;;;;29.04;38.96;101451.33;1613704;87;21132;-49
2021/08/08 09:25:22;;;;;;;4.42;1.52;;;;;;;29.06;38.76;101452.05;1627427;88;21474;-49
2021/08/08 09:27:49;;;;;;;5.72;1.87;;;;;;;29.10;38.95;101449.45;1573398;90;21548;-48
2021/08/08 09:30:18;;;;;;;7.15;2.02;;;;;;;29.13;38.74;101453.19;1570545;90;21127;-49
2021/08/08 09:32:45;;;;;;;2.90;1.60;;;;;;;29.16;38.82;101452.45;1566384;90;21067;-49
2021/08/08 09:35:21;;;;;;;3.35;1.87;;;;;;;29.19;39.33;101454.88;1570176;90;21066;-49
2021/08/08 09:37:59;;;;;;;6.95;1.90;;;;;;;29.20;39.09;101451.70;1571470;89;21063;-50
2021/08/08 09:40:28;;;;;;;4.10;1.67;;;;;;;29.25;39.31;101446.77;1577779;89;21027;-50
2021/08/08 09:42:54;;;;;;;2.47;1.70;;;;;;;29.28;39.28;101451.39;1567274;91;21610;-49
2021/08/08 09:45:34;;;;;;;4.55;2.30;;;;;;;29.31;39.37;101446.22;1566562;90;21052;-49
2021/08/08 09:48:01;;;;;;;4.33;1.98;;;;;;;29.35;39.42;101445.81;1568101;90;21569;-49
2021/08/08 09:50:30;;;;;;;6.67;2.00;;;;;;;29.38;39.18;101447.37;1572147;89;21723;-49
2021/08/08 09:53:03;;;;;;;7.10;2.25;;;;;;;29.41;39.53;101446.60;1568848;90;21646;-50
2021/08/08 09:55:37;;;;;;;2.47;1.62;;;;;;;29.44;39.27;101444.14;1541452;92;21113;-49
2021/08/08 09:58:24;;;;;;;5.08;1.60;;;;;;;29.45;39.64;101446.68;1431656;98;21699;-49
2021/08/08 10:00:55;;;;;;;3.72;1.70;;;;;;;29.47;39.08;101446.57;1429183;98;21002;-49
2021/08/08 10:03:22;;;;;;;;;;;;;;;29.48;39.13;101442.40;1418836;99;21104;-49
2021/08/08 10:05:50;;;;;;;2.77;1.77;;;;;;;29.50;38.76;101444.94;1428994;98;20150;-49
2021/08/08 10:08:19;;;;;;;3.72;1.80;;;;;;;29.52;38.66;101446.98;1416655;99;21147;-48
2021/08/08 10:10:52;;;;;;;3.77;2.05;;;;;;;29.53;39.43;101441.47;1433775;99;21136;-48
2021/08/08 10:13:43;;;;;;;2.45;1.77;;;;;;;29.56;39.06;101437.67;1445833;98;21185;-49
2021/08/08 10:16:15;;;;;;;3.65;1.90;;;;;;;29.58;39.08;101439.72;1398339;100;21172;-49
2021/08/08 10:18:44;;;;;;;5.62;1.80;;;;;;;29.60;39.25;101437.75;1400180;101;21320;-49
2021/08/08 10:21:12;;;;;;;2.02;1.80;;;;;;;29.64;39.21;101432.45;1392972;101;21228;-49
2021/08/08 10:23:38;;;;;;;2.55;1.92;;;;;;;29.65;39.06;101426.13;1386443;101;21600;-49
2021/08/08 10:26:05;;;;;;;3.87;2.30;;;;;;;29.68;38.93;101430.70;1420082;101;21176;-49
2021/08/08 10:28:33;;;;;;;13.05;1.98;;;;;;;29.71;38.79;101433.61;1416665;99;21122;-48
2021/08/08 10:31:01;;;;;;;3.15;1.80;;;;;;;29.74;38.41;101433.34;1420210;100;21620;-50
2021/08/08 10:33:28;;;;;;;5.25;2.00;;;;;;;29.74;37.86;101440.91;1436828;98;21580;-50
2021/08/08 10:35:55;;;;;;;5.08;1.90;;;;;;;29.77;38.04;101437.11;1445143;98;21645;-50
2021/08/08 10:38:21;;;;;;;4.28;2.12;;;;;;;29.80;37.78;101431.44;1437521;98;21115;-49
2021/08/08 10:40:49;;;;;;;3.02;1.82;;;;;;;29.81;37.58;101431.81;1443441;98;21138;-50
2021/08/08 10:43:27;;;;;;;4.53;1.57;;;;;;;29.84;37.26;101423.50;1439804;98;21270;-50
2021/08/08 10:46:11;;;;;;;1.95;1.70;;;;;;;29.85;37.16;101430.55;1422013;98;21127;-50
2021/08/08 10:48:42;;;;;;;1.57;1.47;;;;;;;29.88;38.01;101431.62;1401675;101;21135;-48
2021/08/08 10:51:25;;;;;;;9.58;3.62;;;;;;;29.91;37.46;101429.98;1439148;98;21198;-49
2021/08/08 10:54:02;;;;;;;3.08;1.85;;;;;;;29.93;38.04;101426.66;1479367;90;21099;-49
2021/08/08 10:56:42;;;;;;;3.65;1.45;;;;;;;29.98;38.14;101428.44;1581127;90;20996;-49
2021/08/08 10:59:19;;;;;;;2.72;1.60;;;;;;;30.01;37.92;101424.59;1470393;95;21087;-49
2021/08/08 11:01:48;;;;;;;3.50;2.08;;;;;;;30.03;38.10;101427.50;1413563;99;21171;-49
2021/08/08 11:04:14;;;;;;;2.00;1.80;;;;;;;30.06;37.07;101433.08;1405763;100;21261;-48
2021/08/08 11:06:42;;;;;;;3.80;1.67;;;;;;;30.08;36.98;101427.08;1406211;99;21161;-49
2021/08/08 11:09:09;;;;;;;2.98;2.12;;;;;;;30.12;37.09;101433.37;1412908;100;21674;-49
2021/08/08 11:11:39;;;;;;;5.20;1.87;;;;;;;30.16;37.66;101429.41;1415694;99;21101;-49
2021/08/08 11:14:17;;;;;;;1.75;1.52;;;;;;;30.20;37.25;101421.91;1410356;100;21202;-49
2021/08/08 11:17:06;;;;;;;2.35;1.98;;;;;;;30.22;37.38;101420.78;1407063;100;21702;-48
2021/08/08 11:19:38;;;;;;;4.83;1.72;;;;;;;30.26;37.17;101422.19;1401617;101;21156;-49
2021/08/08 11:22:13;;;;;;;3.12;1.55;;;;;;;30.28;37.34;101413.48;1409161;100;21782;-50
2021/08/08 11:24:43;;;;;;;3.50;1.60;;;;;;;30.31;37.22;101409.22;1408878;99;21141;-49
2021/08/08 11:27:10;;;;;;;2.10;1.70;;;;;;;30.34;37.13;101412.94;1407495;99;21744;-50
2021/08/08 11:29:37;;;;;;;2.67;1.80;;;;;;;30.38;37.21;101418.86;1407308;100;21225;-50
2021/08/08 11:32:07;;;;;;;1.92;1.60;;;;;;;30.39;37.06;101414.72;1407380;100;21144;-50